Time;durP1;ratioP1;P1;durP2;ratioP2;P2;SDS_P1;SDS_P2;PMS_P1;PMS_P2;Temp;Humidity;BMP_temperature;BMP_pressure;BME280_temperature;BME280_humidity;BME280_pressure;Samples;Min_cycle;Max_cycle;Signal;HPM_P1;HPM_P2
2021/11/12 00:14:11;;;;;;;21.42;14.98;;;;;;;5.32;54.96;101050.14;1789925;79;21149;-69
2021/11/12 00:16:38;;;;;;;21.33;14.70;;;;;;;5.32;54.98;101048.81;1784969;80;21125;-68
2021/11/12 00:19:05;;;;;;;23.75;15.25;;;;;;;5.32;54.95;101049.63;1784835;78;21093;-68
2021/11/12 00:21:33;;;;;;;23.22;15.68;;;;;;;5.37;54.85;101048.49;1784940;80;21082;-69
2021/11/12 00:24:00;;;;;;;23.12;15.60;;;;;;;5.38;54.80;101042.16;1784807;78;21325;-68
2021/11/12 00:26:27;;;;;;;23.38;15.85;;;;;;;5.39;54.75;101036.34;1781685;80;21562;-68
2021/11/12 00:28:59;;;;;;;24.67;16.42;;;;;;;5.39;54.77;101038.48;1768885;79;21799;-69
2021/11/12 00:31:32;;;;;;;23.57;16.00;;;;;;;5.39;54.80;101033.70;1769256;79;21557;-68
2021/11/12 00:36:31;;;;;;;20.17;13.95;;;;;;;5.43;54.69;101030.11;1763828;80;21018;-69
2021/11/12 00:41:40;;;;;;;26.45;16.50;;;;;;;5.39;54.88;101026.56;1658853;84;21854;-70
2021/11/12 00:45:01;;;;;;;25.10;16.45;;;;;;;5.40;54.86;101028.20;1661803;86;21046;-70
2021/11/12 00:46:49;;;;;;;25.23;16.73;;;;;;;5.42;54.81;101030.63;1638104;84;21691;-70
2021/11/12 00:49:12;;;;;;;24.12;15.98;;;;;;;5.43;54.81;101023.49;1664180;84;21066;-69
2021/11/12 00:51:47;;;;;;;24.30;15.95;;;;;;;5.45;54.81;101017.48;1680914;84;21072;-70
2021/11/12 00:54:09;;;;;;;23.35;16.15;;;;;;;5.39;54.81;101015.96;1654492;84;22235;-70
2021/11/12 00:56:36;;;;;;;23.27;15.43;;;;;;;5.39;54.82;101015.16;1673597;84;21025;-70
2021/11/12 00:59:05;;;;;;;23.60;15.38;;;;;;;5.38;54.81;101009.57;1671637;84;21732;-70
2021/11/12 01:01:36;;;;;;;19.98;14.50;;;;;;;5.39;54.89;101015.16;1678876;84;21074;-70
2021/11/12 01:04:06;;;;;;;23.73;14.85;;;;;;;5.37;54.84;101012.73;1673727;84;21166;-70
2021/11/12 01:06:35;;;;;;;21.42;14.63;;;;;;;5.37;54.86;101012.73;1683154;84;21125;-69
2021/11/12 01:09:05;;;;;;;24.27;16.07;;;;;;;5.36;55.02;101006.30;1674535;85;21025;-71
2021/11/12 01:11:33;;;;;;;25.57;17.15;;;;;;;5.33;54.97;101008.05;1674525;84;20981;-70
2021/11/12 01:13:59;;;;;;;23.85;15.93;;;;;;;5.34;54.91;101000.42;1674418;84;21240;-70
2021/11/12 01:16:26;;;;;;;21.82;15.88;;;;;;;5.35;54.83;100996.23;1675651;84;21335;-70
2021/11/12 01:18:54;;;;;;;25.77;16.48;;;;;;;5.33;54.87;100992.16;1672760;84;21196;-69
2021/11/12 01:21:22;;;;;;;20.55;15.03;;;;;;;5.31;54.84;100989.73;1671155;84;21061;-69
2021/11/12 01:23:50;;;;;;;23.87;16.40;;;;;;;5.31;54.90;100988.92;1668510;84;21118;-69
2021/11/12 01:26:19;;;;;;;22.58;16.20;;;;;;;5.29;54.93;100985.66;1683556;84;21080;-70
2021/11/12 01:28:45;;;;;;;20.72;15.68;;;;;;;5.26;55.00;100973.65;1674466;85;21065;-70
2021/11/12 01:31:12;;;;;;;23.02;15.80;;;;;;;5.28;55.04;100970.29;1675399;85;21139;-70
2021/11/12 01:33:41;;;;;;;19.20;14.07;;;;;;;5.27;55.14;100969.19;1675727;85;21453;-70
2021/11/12 01:36:28;;;;;;;23.47;15.90;;;;;;;5.24;55.23;100970.42;1683266;84;21451;-69
2021/11/12 01:38:47;;;;;;;24.92;16.37;;;;;;;5.20;55.38;100969.70;1667592;84;21627;-69
2021/11/12 01:41:15;;;;;;;20.68;15.30;;;;;;;5.20;55.38;100967.90;1659615;85;21471;-70
2021/11/12 01:43:45;;;;;;;23.18;16.17;;;;;;;5.18;55.39;100975.23;1656814;85;21126;-70
2021/11/12 01:46:24;;;;;;;25.15;16.35;;;;;;;5.12;55.62;100971.58;1678123;84;20980;-70
2021/11/12 01:53:50;;;;;;;24.72;16.90;;;;;;;5.07;55.68;100963.47;1688936;83;21127;-70
2021/11/12 01:56:33;;;;;;;24.20;16.40;;;;;;;5.04;55.67;100955.95;1668481;84;21454;-70
2021/11/12 01:59:08;;;;;;;23.50;17.27;;;;;;;5.04;55.69;100959.11;1670296;84;20987;-69
2021/11/12 02:01:45;;;;;;;23.77;16.93;;;;;;;5.01;55.77;100959.53;1670183;84;21054;-68
2021/11/12 02:04:16;;;;;;;27.50;17.07;;;;;;;4.99;55.80;100965.02;1692414;84;21001;-68
2021/11/12 02:06:43;;;;;;;23.75;17.52;;;;;;;4.89;55.92;100966.78;1690969;84;21060;-68
2021/11/12 02:09:21;;;;;;;26.05;18.73;;;;;;;4.88;56.05;100967.81;1670352;84;21153;-69
2021/11/12 02:14:45;;;;;;;23.85;17.87;;;;;;;4.86;56.25;100968.52;1694646;83;21111;-69
2021/11/12 02:17:19;;;;;;;26.30;16.07;;;;;;;4.84;56.26;100969.27;1667468;84;21629;-69
2021/11/12 02:19:51;;;;;;;27.22;17.95;;;;;;;4.83;56.30;100969.45;1654503;85;21507;-69
2021/11/12 02:22:17;;;;;;;23.55;16.45;;;;;;;4.81;56.42;100971.52;1632936;86;21870;-69
2021/11/12 02:25:02;;;;;;;24.05;16.95;;;;;;;4.84;56.38;100965.80;1654392;86;20960;-69
2021/11/12 02:27:17;;;;;;;26.90;18.45;;;;;;;4.83;56.41;100962.32;1650338;85;21605;-68
2021/11/12 02:29:47;;;;;;;27.22;17.80;;;;;;;4.82;56.47;100963.35;1656747;86;21459;-69
2021/11/12 02:32:23;;;;;;;23.57;16.87;;;;;;;4.80;56.53;100963.25;1655317;85;21047;-69
2021/11/12 02:34:51;;;;;;;24.90;16.97;;;;;;;4.77;56.52;100951.76;1663109;85;21181;-68
2021/11/12 02:37:23;;;;;;;23.92;16.67;;;;;;;4.73;56.55;100952.69;1663011;85;21528;-68
2021/11/12 02:39:50;;;;;;;26.75;18.25;;;;;;;4.68;56.55;100952.00;1679096;84;21580;-68
2021/11/12 02:42:18;;;;;;;23.20;16.55;;;;;;;4.67;56.65;100948.23;1689671;83;21550;-69
2021/11/12 02:44:45;;;;;;;26.93;18.55;;;;;;;4.63;56.77;100949.67;1690464;83;21569;-68
2021/11/12 02:47:13;;;;;;;25.30;17.52;;;;;;;4.60;56.82;100948.76;1685782;84;21078;-68
2021/11/12 02:49:42;;;;;;;26.60;17.35;;;;;;;4.58;56.86;100949.50;1682118;84;21589;-68
2021/11/12 02:52:10;;;;;;;25.77;17.82;;;;;;;4.61;56.84;100947.76;1683139;84;21079;-68
2021/11/12 02:54:38;;;;;;;24.45;15.83;;;;;;;4.59;56.87;100943.98;1691996;83;21017;-68
2021/11/12 02:57:07;;;;;;;27.50;17.70;;;;;;;4.59;56.93;100941.85;1686251;83;21665;-68
2021/11/12 02:59:34;;;;;;;26.33;17.65;;;;;;;4.58;57.00;100942.88;1682517;84;21111;-68
2021/11/12 03:02:04;;;;;;;25.48;17.15;;;;;;;4.57;57.06;100946.02;1682267;84;21012;-68
2021/11/12 03:04:31;;;;;;;24.55;17.07;;;;;;;4.56;57.15;100941.75;1677622;84;21494;-69
2021/11/12 03:06:58;;;;;;;28.02;19.73;;;;;;;4.56;57.18;100947.55;1690766;83;21096;-69
2021/11/12 03:09:30;;;;;;;25.72;18.42;;;;;;;4.53;57.27;100942.16;1691775;83;21100;-69
2021/11/12 03:11:59;;;;;;;25.40;17.73;;;;;;;4.51;57.37;100938.93;1691742;83;21018;-69
2021/11/12 03:14:26;;;;;;;26.55;18.52;;;;;;;4.49;57.40;100938.31;1690969;83;21037;-68
2021/11/12 03:16:54;;;;;;;26.75;18.90;;;;;;;4.49;57.50;100938.83;1691614;83;21563;-69
2021/11/12 03:19:24;;;;;;;26.42;18.65;;;;;;;4.49;57.52;100941.47;1692091;83;21092;-69
2021/11/12 03:21:54;;;;;;;27.67;19.07;;;;;;;4.48;57.60;100940.66;1691743;83;21021;-69
2021/11/12 03:24:25;;;;;;;26.33;18.82;;;;;;;4.46;57.68;100938.73;1681085;83;21175;-69
2021/11/12 03:26:57;;;;;;;26.20;18.48;;;;;;;4.44;57.73;100938.95;1666834;84;21043;-69
2021/11/12 03:59:53;;;;;;;31.15;20.10;;;;;;;4.27;59.13;100925.83;1691780;83;21037;-69
2021/11/12 05:10:47;;;;;;;33.45;22.52;;;;;;;4.26;60.60;100937.44;1682392;84;21107;-69
2021/11/12 05:51:25;;;;;;;29.90;19.90;;;;;;;4.23;61.74;100966.42;1673634;84;21030;-69
2021/11/12 05:56:24;;;;;;;37.38;24.27;;;;;;;4.29;61.89;100967.44;1670445;84;21015;-68
2021/11/12 05:58:51;;;;;;;33.60;23.12;;;;;;;4.32;62.03;100967.03;1666961;84;21026;-69
2021/11/12 06:01:18;;;;;;;33.70;24.77;;;;;;;4.36;62.04;100974.05;1670350;84;21411;-70
2021/11/12 06:03:44;;;;;;;32.65;23.12;;;;;;;4.41;62.00;100980.35;1672377;84;21035;-70
2021/11/12 06:06:11;;;;;;;36.77;24.05;;;;;;;4.44;62.12;100980.42;1681936;84;21139;-70
2021/11/12 06:08:38;;;;;;;33.38;22.73;;;;;;;4.51;62.09;100967.19;1670814;84;21001;-69
2021/11/12 06:11:05;;;;;;;35.63;24.20;;;;;;;4.56;62.06;100964.23;1670057;84;21123;-70
2021/11/12 06:13:31;;;;;;;37.05;23.75;;;;;;;4.61;61.99;100960.47;1674720;84;21458;-71
2021/11/12 06:15:59;;;;;;;36.73;23.67;;;;;;;4.65;62.03;100963.52;1688323;83;21583;-70
2021/11/12 06:18:26;;;;;;;36.08;25.10;;;;;;;4.69;62.00;100963.39;1682451;83;21824;-70
2021/11/12 06:20:54;;;;;;;37.33;25.23;;;;;;;4.73;61.96;100961.95;1681787;84;21027;-70
2021/11/12 06:23:21;;;;;;;35.95;24.60;;;;;;;4.79;61.85;100961.64;1681782;84;20971;-70
2021/11/12 06:25:47;;;;;;;34.92;23.85;;;;;;;4.83;61.71;100965.48;1684217;83;21086;-69
2021/11/12 06:28:14;;;;;;;41.40;26.25;;;;;;;4.86;61.67;100963.23;1670682;84;21207;-69
2021/11/12 06:30:41;;;;;;;36.65;25.60;;;;;;;4.90;61.58;100972.41;1670393;84;21373;-69
2021/11/12 06:33:09;;;;;;;38.55;25.82;;;;;;;4.97;61.55;100967.56;1677128;83;20997;-69
2021/11/12 06:35:36;;;;;;;36.13;25.25;;;;;;;5.01;61.51;100970.13;1691963;83;21013;-69
2021/11/12 06:38:03;;;;;;;33.05;23.52;;;;;;;5.07;61.45;100973.26;1691486;83;21508;-70
2021/11/12 06:40:30;;;;;;;36.08;24.77;;;;;;;5.16;61.35;100976.75;1691704;83;21068;-70
2021/11/12 06:43:10;;;;;;;37.53;26.00;;;;;;;5.20;61.25;100970.55;1688695;83;21037;-70
2021/11/12 06:51:10;;;;;;;35.17;24.70;;;;;;;5.38;61.14;100964.02;1691796;83;21144;-69
2021/11/12 06:53:37;;;;;;;39.10;25.82;;;;;;;5.48;61.20;100970.18;1691901;83;21061;-68
2021/11/12 06:56:06;;;;;;;38.40;26.90;;;;;;;5.57;61.11;100974.72;1691683;83;21029;-68
2021/11/12 06:58:34;;;;;;;36.63;24.35;;;;;;;5.65;60.99;100966.50;1689350;83;21596;-68
2021/11/12 07:01:01;;;;;;;36.50;26.05;;;;;;;5.74;60.89;100970.52;1686059;84;21034;-69
2021/11/12 07:03:28;;;;;;;35.75;25.72;;;;;;;5.84;60.82;100964.23;1682206;84;21011;-69
2021/11/12 07:05:55;;;;;;;38.17;26.97;;;;;;;5.93;60.56;100974.62;1681492;84;21052;-69
2021/11/12 07:08:21;;;;;;;36.85;25.43;;;;;;;5.97;60.43;100967.84;1689689;83;21110;-69
2021/11/12 07:10:52;;;;;;;36.23;24.82;;;;;;;5.99;60.46;100967.09;1678294;84;21015;-68
2021/11/12 07:13:25;;;;;;;37.90;27.80;;;;;;;6.04;60.50;100960.64;1677763;83;21001;-69
2021/11/12 07:15:49;;;;;;;39.63;26.85;;;;;;;6.11;60.48;100962.72;1672812;84;21720;-69
2021/11/12 07:18:16;;;;;;;40.50;27.07;;;;;;;6.22;60.40;100958.54;1668336;84;20955;-69
2021/11/12 07:20:42;;;;;;;41.80;27.62;;;;;;;6.32;60.27;100957.03;1670525;84;21139;-70
2021/11/12 07:23:09;;;;;;;37.75;26.15;;;;;;;6.39;60.16;100960.95;1672331;84;21050;-69
2021/11/12 07:25:35;;;;;;;36.77;25.12;;;;;;;6.46;60.19;100948.94;1671332;84;21032;-69
2021/11/12 07:28:02;;;;;;;38.50;27.35;;;;;;;6.54;60.09;100953.95;1677573;84;21451;-69
2021/11/12 07:30:30;;;;;;;39.00;27.55;;;;;;;6.61;60.02;100933.97;1676967;83;21056;-69
2021/11/12 07:32:58;;;;;;;41.25;29.65;;;;;;;6.68;59.97;100954.12;1691788;83;21016;-69
2021/11/12 07:35:30;;;;;;;40.78;27.98;;;;;;;6.77;59.98;100946.13;1670007;83;21024;-69
2021/11/12 07:38:01;;;;;;;39.83;27.85;;;;;;;6.88;59.97;100950.40;1667770;84;21063;-69
2021/11/12 07:40:49;;;;;;;;;;;;;;;6.95;59.97;100939.20;1672193;84;21050;-70
2021/11/12 07:45:38;;;;;;;40.70;28.12;;;;;;;7.24;59.87;100946.91;1670615;84;21224;-69
2021/11/12 07:48:04;;;;;;;42.23;30.45;;;;;;;7.36;59.55;100941.62;1669235;84;21058;-69
2021/11/12 07:50:31;;;;;;;42.08;29.63;;;;;;;7.44;59.33;100940.79;1674840;83;21072;-69
2021/11/12 07:52:59;;;;;;;44.48;32.05;;;;;;;7.56;59.17;100947.98;1686221;83;21177;-69
2021/11/12 07:55:26;;;;;;;42.53;30.45;;;;;;;7.65;59.19;100952.73;1691720;83;21076;-68
2021/11/12 07:57:53;;;;;;;43.20;29.87;;;;;;;7.73;59.10;100948.94;1680386;83;21830;-69
2021/11/12 08:00:22;;;;;;;43.00;30.30;;;;;;;7.85;59.04;100943.13;1681894;84;21095;-69
2021/11/12 08:02:49;;;;;;;41.98;30.25;;;;;;;7.96;58.87;100937.52;1680461;84;21059;-69
2021/11/12 08:05:26;;;;;;;43.15;30.45;;;;;;;8.09;58.58;100931.17;1676652;84;21063;-69
2021/11/12 08:07:52;;;;;;;44.85;32.25;;;;;;;8.20;58.46;100937.84;1681805;83;21032;-69
2021/11/12 08:10:21;;;;;;;43.75;31.97;;;;;;;8.29;58.16;100936.98;1689289;83;21129;-69
2021/11/12 08:12:58;;;;;;;41.63;30.75;;;;;;;8.32;58.19;100929.83;1691655;83;21654;-70
2021/11/12 08:17:53;;;;;;;40.95;29.25;;;;;;;8.52;58.07;100930.83;1689023;83;21618;-69
2021/11/12 08:20:32;;;;;;;47.95;33.35;;;;;;;8.63;57.93;100931.87;1688146;83;20978;-70
2021/11/12 08:25:37;;;;;;;40.95;30.23;;;;;;;8.87;57.55;100929.95;1688956;83;21487;-69
2021/11/12 08:28:14;;;;;;;47.73;33.42;;;;;;;8.95;57.33;100938.92;1691380;83;21009;-71
2021/11/12 08:33:37;;;;;;;42.45;30.10;;;;;;;9.14;57.27;100928.87;1687405;83;20219;-70
2021/11/12 08:41:24;;;;;;;43.95;32.03;;;;;;;9.52;57.23;100920.23;1672409;84;21055;-71
2021/11/12 08:43:35;;;;;;;48.17;33.53;;;;;;;9.65;56.80;100914.31;1679511;83;21028;-69
2021/11/12 08:46:11;;;;;;;43.30;31.50;;;;;;;9.75;56.50;100903.80;1691784;83;21092;-70
2021/11/12 08:48:42;;;;;;;44.88;33.63;;;;;;;9.89;56.38;100914.95;1689645;83;21580;-70
2021/11/12 08:51:07;;;;;;;46.83;34.05;;;;;;;10.03;56.34;100913.55;1680330;84;21094;-69
2021/11/12 08:53:33;;;;;;;46.73;33.55;;;;;;;10.13;56.02;100911.56;1686901;83;21020;-71
2021/11/12 08:56:00;;;;;;;41.28;30.27;;;;;;;10.22;55.71;100918.11;1686329;83;21520;-70
2021/11/12 08:58:27;;;;;;;43.68;30.32;;;;;;;10.17;55.81;100904.67;1672027;83;21081;-74
2021/11/12 09:00:54;;;;;;;44.48;32.45;;;;;;;10.32;55.48;100899.59;1670381;84;21178;-70
2021/11/12 09:03:22;;;;;;;43.85;31.97;;;;;;;10.45;55.33;100899.23;1683292;83;21012;-69
2021/11/12 09:05:49;;;;;;;42.27;31.02;;;;;;;10.59;54.95;100907.67;1679945;83;21075;-70
2021/11/12 09:08:15;;;;;;;47.98;33.83;;;;;;;10.68;54.74;100901.37;1687918;83;21017;-69
2021/11/12 09:10:44;;;;;;;46.10;31.27;;;;;;;10.77;54.18;100905.23;1689136;83;21147;-71
2021/11/12 09:13:19;;;;;;;41.85;30.75;;;;;;;10.77;53.55;100910.58;1675532;84;21799;-70
2021/11/12 09:15:49;;;;;;;37.50;28.47;;;;;;;10.84;53.28;100919.20;1678172;84;21738;-71
2021/11/12 09:18:11;;;;;;;44.23;30.80;;;;;;;10.72;52.61;100913.98;1669474;84;21085;-70
2021/11/12 09:20:38;;;;;;;41.50;29.67;;;;;;;10.73;52.99;100917.48;1666229;84;21116;-70
2021/11/12 09:23:06;;;;;;;41.92;30.72;;;;;;;10.76;52.80;100900.42;1681239;83;21205;-70
2021/11/12 09:25:32;;;;;;;38.15;29.40;;;;;;;10.82;52.45;100900.47;1674743;84;21560;-71
2021/11/12 09:27:59;;;;;;;43.17;30.65;;;;;;;10.80;52.28;100893.52;1668582;84;21062;-69
2021/11/12 09:30:30;;;;;;;38.78;29.07;;;;;;;10.88;52.33;100898.94;1685807;83;21608;-71
2021/11/12 09:32:55;;;;;;;38.08;29.10;;;;;;;10.96;52.23;100899.84;1674984;84;21096;-69
2021/11/12 09:35:22;;;;;;;40.55;30.27;;;;;;;11.11;51.80;100893.03;1674029;84;21660;-72
2021/11/12 09:37:51;;;;;;;41.50;31.10;;;;;;;11.17;51.59;100910.74;1670196;84;21072;-71
2021/11/12 09:40:18;;;;;;;40.90;29.98;;;;;;;11.31;51.34;100901.25;1670397;84;21034;-70
2021/11/12 09:42:45;;;;;;;39.90;29.67;;;;;;;11.40;51.25;100899.73;1686110;83;21084;-70
2021/11/12 09:45:12;;;;;;;36.28;27.00;;;;;;;11.45;50.67;100899.80;1680633;83;21035;-72
2021/11/12 09:47:39;;;;;;;38.73;29.70;;;;;;;11.55;50.52;100902.26;1678025;83;21046;-70
2021/11/12 09:50:16;;;;;;;37.88;28.52;;;;;;;11.64;50.04;100908.77;1657127;84;21607;-70
2021/11/12 09:52:45;;;;;;;36.03;30.50;;;;;;;11.60;49.75;100901.78;1654064;84;38320;-69
2021/11/12 09:55:12;;;;;;;36.03;28.05;;;;;;;11.64;49.65;100893.51;1675268;84;21557;-70
2021/11/12 09:57:41;;;;;;;34.50;27.27;;;;;;;11.73;49.45;100903.22;1672381;83;21052;-70
2021/11/12 10:00:12;;;;;;;35.78;28.55;;;;;;;11.73;49.13;100901.88;1676861;84;20963;-70
2021/11/12 10:02:45;;;;;;;34.75;25.10;;;;;;;11.73;49.24;100889.30;1674106;84;21145;-69
2021/11/12 10:05:12;;;;;;;31.93;25.65;;;;;;;11.87;48.95;100891.58;1680696;83;21016;-70
2021/11/12 10:07:39;;;;;;;33.92;25.65;;;;;;;11.83;48.98;100889.91;1684356;83;21169;-69
2021/11/12 10:10:15;;;;;;;37.98;28.40;;;;;;;11.90;48.87;100887.84;1678096;84;21069;-70
2021/11/12 10:12:47;;;;;;;35.35;27.80;;;;;;;11.88;49.30;100891.87;1676288;83;21607;-70
2021/11/12 10:15:18;;;;;;;34.53;26.80;;;;;;;11.99;49.56;100892.20;1675147;84;21115;-69
2021/11/12 10:17:47;;;;;;;39.90;27.95;;;;;;;12.01;49.79;100895.94;1665777;84;21124;-70
2021/11/12 10:20:17;;;;;;;41.53;28.47;;;;;;;11.99;50.09;100901.56;1668701;84;21078;-69
2021/11/12 10:22:46;;;;;;;35.68;25.82;;;;;;;11.91;50.50;100904.70;1667585;84;21093;-69
2021/11/12 10:25:14;;;;;;;39.70;27.65;;;;;;;11.85;51.09;100903.89;1668823;84;21079;-69
2021/11/12 10:27:51;;;;;;;33.63;25.92;;;;;;;11.83;51.04;100905.97;1666998;84;21100;-70
2021/11/12 10:30:23;;;;;;;34.67;25.92;;;;;;;11.85;50.96;100894.52;1666066;84;21149;-69
2021/11/12 10:32:52;;;;;;;42.98;28.27;;;;;;;11.84;51.15;100892.05;1667107;84;21082;-69
2021/11/12 10:35:26;;;;;;;32.73;24.90;;;;;;;11.91;51.06;100897.52;1664002;84;21133;-69
2021/11/12 10:37:53;;;;;;;39.10;29.02;;;;;;;11.89;50.92;100892.13;1666731;84;21528;-69
2021/11/12 10:40:25;;;;;;;34.13;26.90;;;;;;;11.93;51.15;100890.01;1668061;84;21046;-69
2021/11/12 10:42:55;;;;;;;36.45;26.70;;;;;;;11.97;50.96;100887.09;1668277;84;21136;-68
2021/11/12 10:45:24;;;;;;;36.35;26.45;;;;;;;11.96;50.96;100885.48;1667924;84;21038;-70
2021/11/12 10:47:59;;;;;;;35.55;25.65;;;;;;;12.14;50.98;100883.44;1667007;84;21114;-69
2021/11/12 10:50:33;;;;;;;33.88;26.50;;;;;;;12.21;50.91;100886.72;1667162;84;21061;-69
2021/11/12 10:53:11;;;;;;;31.55;25.12;;;;;;;12.34;50.58;100890.78;1667078;84;21558;-69
2021/11/12 10:55:40;;;;;;;32.45;24.80;;;;;;;12.32;51.05;100899.09;1666312;84;21094;-69
2021/11/12 10:58:09;;;;;;;34.20;25.40;;;;;;;12.27;51.52;100890.20;1667492;83;21572;-69
2021/11/12 11:00:46;;;;;;;33.30;23.73;;;;;;;12.30;51.64;100895.05;1550489;84;9999741;-70
2021/11/12 11:03:22;;;;;;;34.50;25.43;;;;;;;12.33;51.91;100899.35;1680312;84;21721;-70
2021/11/12 11:06:02;;;;;;;33.20;24.92;;;;;;;12.47;51.96;100893.52;1667958;84;21085;-70
2021/11/12 11:08:34;;;;;;;32.40;25.08;;;;;;;12.56;51.85;100889.28;1671636;84;21086;-69
2021/11/12 11:11:07;;;;;;;31.00;24.15;;;;;;;12.75;51.76;100894.45;1680044;83;21103;-71
2021/11/12 11:13:40;;;;;;;30.60;24.10;;;;;;;12.85;51.65;100891.80;1686011;83;21091;-71
2021/11/12 11:16:16;;;;;;;31.23;24.87;;;;;;;12.86;51.43;100888.04;1667999;84;21125;-76
2021/11/12 11:18:43;;;;;;;;;;;;;;;12.79;51.64;100882.66;1683735;84;21189;-69
2021/11/12 11:23:45;;;;;;;32.33;24.47;;;;;;;12.68;52.10;100880.49;1658523;86;22230;-69
2021/11/12 11:26:15;;;;;;;31.25;23.98;;;;;;;12.68;52.23;100882.63;1687802;83;21123;-69
2021/11/12 11:28:42;;;;;;;31.23;23.85;;;;;;;12.69;52.20;100882.09;1682747;85;21578;-69
2021/11/12 11:31:12;;;;;;;32.28;23.70;;;;;;;12.60;52.53;100887.68;1685293;83;21076;-69
2021/11/12 11:33:41;;;;;;;35.95;24.82;;;;;;;12.65;52.56;100886.38;1666985;84;21125;-69
2021/11/12 11:36:09;;;;;;;32.93;24.37;;;;;;;12.67;52.59;100889.07;1687948;83;21106;-69
2021/11/12 11:38:41;;;;;;;31.20;23.97;;;;;;;12.60;52.81;100884.49;1684263;83;21095;-71
2021/11/12 11:41:14;;;;;;;34.92;23.45;;;;;;;12.54;53.06;100884.20;1651207;86;21203;-69
2021/11/12 11:43:42;;;;;;;26.55;21.33;;;;;;;12.70;53.01;100883.72;1668793;84;21070;-69
2021/11/12 11:46:12;;;;;;;33.08;22.80;;;;;;;12.75;52.99;100884.27;1667266;84;21071;-70
2021/11/12 11:48:41;;;;;;;26.87;20.87;;;;;;;12.73;53.01;100885.85;1551876;84;9999824;-71
2021/11/12 11:51:08;;;;;;;27.90;21.65;;;;;;;12.76;53.02;100885.33;1670124;84;21812;-71
2021/11/12 11:53:49;;;;;;;29.23;22.60;;;;;;;12.76;53.07;100873.27;1665722;84;21569;-71
2021/11/12 11:56:42;;;;;;;27.67;21.62;;;;;;;12.68;53.32;100880.49;1671369;84;22522;-70
2021/11/12 11:59:28;;;;;;;29.10;19.95;;;;;;;12.64;53.54;100880.22;1670201;84;21051;-69
2021/11/12 12:01:57;;;;;;;26.37;19.82;;;;;;;12.65;53.74;100880.48;1669699;84;21066;-68
2021/11/12 12:04:30;;;;;;;21.62;17.50;;;;;;;12.64;54.02;100884.77;1640690;84;21496;-69
2021/11/12 12:07:16;;;;;;;22.65;17.02;;;;;;;12.69;54.17;100888.80;1657917;84;21052;-69
2021/11/12 12:10:01;;;;;;;21.33;16.37;;;;;;;12.73;54.37;100887.73;1670114;84;20992;-71
2021/11/12 12:12:35;;;;;;;23.70;17.37;;;;;;;12.74;54.35;100889.36;1668012;84;21101;-71
2021/11/12 12:15:15;;;;;;;22.75;17.57;;;;;;;12.71;54.55;100891.23;1667043;83;21181;-69
2021/11/12 12:17:44;;;;;;;23.45;17.15;;;;;;;12.70;54.58;100887.75;1669732;84;21349;-70
2021/11/12 13:18:15;;;;;;;26.17;19.50;;;;;;;12.91;54.31;100906.03;1666536;84;21129;-68
2021/11/12 13:20:40;;;;;;;28.38;21.48;;;;;;;12.56;55.50;100938.31;1670275;84;21454;-68
2021/11/12 13:25:54;;;;;;;25.00;19.75;;;;;;;12.49;55.93;100934.27;1670692;84;21015;-69
2021/11/12 13:28:30;;;;;;;27.48;19.73;;;;;;;12.48;56.18;100931.32;1670318;84;21537;-69
2021/11/12 13:31:08;;;;;;;25.40;18.20;;;;;;;12.44;56.26;100937.73;1670511;84;21617;-70
2021/11/12 13:33:54;;;;;;;22.00;17.20;;;;;;;12.41;56.42;100930.22;1670533;84;21718;-68
2021/11/12 13:36:31;;;;;;;22.05;17.07;;;;;;;12.35;56.55;100934.73;1670662;84;21534;-69
2021/11/12 13:39:10;;;;;;;27.10;18.30;;;;;;;12.28;56.82;100936.84;1670277;86;20995;-69
2021/11/12 13:41:41;;;;;;;25.12;18.50;;;;;;;12.20;56.92;100934.63;1670507;84;21108;-70
2021/11/12 13:44:23;;;;;;;29.10;21.12;;;;;;;12.13;57.04;100934.85;1670217;84;21131;-70
2021/11/12 13:46:54;;;;;;;31.70;23.00;;;;;;;12.08;57.16;100938.05;1670511;84;21478;-70
2021/11/12 13:49:38;;;;;;;39.63;30.70;;;;;;;12.00;57.33;100941.19;1662498;84;21157;-70
2021/11/12 13:52:12;;;;;;;35.23;27.73;;;;;;;11.89;57.55;100938.44;1659460;84;21033;-70
2021/11/12 13:54:47;;;;;;;29.25;21.82;;;;;;;11.79;57.78;100941.55;1670297;84;21149;-69
2021/11/12 13:57:17;;;;;;;27.85;21.25;;;;;;;11.69;57.96;100947.62;1670642;84;21035;-71
2021/11/12 13:59:58;;;;;;;29.02;21.48;;;;;;;11.61;58.12;100952.88;1669909;84;21680;-69
2021/11/12 14:02:30;;;;;;;26.80;20.17;;;;;;;11.51;58.27;100960.28;1667418;84;21048;-70
2021/11/12 14:05:10;;;;;;;25.65;19.95;;;;;;;11.41;58.64;100968.74;1670332;86;21536;-71
2021/11/12 14:07:38;;;;;;;28.42;19.87;;;;;;;11.32;58.81;100965.73;1670224;86;21575;-70
2021/11/12 14:10:08;;;;;;;26.95;19.77;;;;;;;11.24;59.00;100971.52;1670144;84;21066;-70
2021/11/12 14:12:36;;;;;;;26.90;20.20;;;;;;;11.17;59.16;100960.20;1670335;84;21101;-70
2021/11/12 14:15:25;;;;;;;29.87;21.10;;;;;;;11.09;59.35;100965.48;1670276;84;21062;-70
2021/11/12 14:18:02;;;;;;;26.55;20.35;;;;;;;11.02;59.54;100967.51;1669684;84;21034;-69
2021/11/12 14:20:31;;;;;;;27.50;20.20;;;;;;;10.93;59.76;100972.50;1628469;86;21564;-71
2021/11/12 14:23:13;;;;;;;24.82;18.82;;;;;;;10.85;60.01;100981.47;1643090;86;21019;-69
2021/11/12 14:28:35;;;;;;;24.57;18.52;;;;;;;10.69;60.42;100980.46;1665727;84;21495;-70
2021/11/12 14:31:09;;;;;;;25.75;19.48;;;;;;;10.63;60.47;100983.61;1668807;84;21065;-69
2021/11/12 14:39:17;;;;;;;28.95;21.25;;;;;;;10.36;61.11;100990.69;1669847;84;21472;-70
2021/11/12 14:41:35;;;;;;;29.27;21.20;;;;;;;10.28;61.21;100989.25;1637426;86;21141;-71
2021/11/12 14:44:14;;;;;;;30.55;20.15;;;;;;;10.20;61.36;101001.62;1642493;86;21018;-69
2021/11/12 14:46:37;;;;;;;27.75;20.05;;;;;;;10.14;61.49;101002.62;1642941;85;22021;-70
2021/11/12 14:52:11;;;;;;;29.92;20.57;;;;;;;10.02;61.71;101008.83;1670405;84;21023;-70
2021/11/12 14:54:51;;;;;;;31.70;20.45;;;;;;;9.99;61.68;101014.64;1670245;84;20999;-70
2021/11/12 14:57:29;;;;;;;32.50;22.37;;;;;;;9.96;61.65;101023.13;1670356;84;21446;-69
2021/11/12 15:00:01;;;;;;;34.18;22.73;;;;;;;9.92;61.76;101030.53;1670414;84;21128;-69
2021/11/12 15:02:29;;;;;;;;;;;;;;;9.86;61.87;101026.96;1673247;84;21211;-69
2021/11/12 15:04:57;;;;;;;33.60;22.75;;;;;;;9.83;62.03;101034.11;1665905;84;21917;-69
2021/11/12 15:07:26;;;;;;;32.08;22.37;;;;;;;9.75;62.08;101028.65;1670386;84;21438;-68
2021/11/12 15:09:53;;;;;;;36.08;23.30;;;;;;;9.71;62.16;101040.85;1670559;84;21050;-70
2021/11/12 15:12:22;;;;;;;35.52;24.65;;;;;;;9.66;62.27;101043.94;1670395;84;21003;-70
2021/11/12 15:14:57;;;;;;;36.45;25.10;;;;;;;9.61;62.40;101046.81;1670022;84;21114;-70
2021/11/12 15:17:24;;;;;;;36.50;26.82;;;;;;;9.58;62.53;101043.81;1670350;84;21455;-68
2021/11/12 15:19:52;;;;;;;38.50;26.95;;;;;;;9.54;62.62;101047.48;1670663;84;21530;-68
2021/11/12 15:30:13;;;;;;;43.38;27.40;;;;;;;9.43;62.90;101056.31;1670117;84;21038;-70
2021/11/12 15:32:40;;;;;;;43.25;29.02;;;;;;;9.37;62.92;101051.92;1669898;84;21035;-68
2021/11/12 15:35:12;;;;;;;;;;;;;;;9.32;63.00;101059.83;1672910;84;21047;-69
2021/11/12 15:38:06;;;;;;;42.35;29.48;;;;;;;9.25;63.21;101065.30;1663034;84;21159;-68
2021/11/12 15:40:26;;;;;;;43.30;29.65;;;;;;;9.19;63.48;101070.23;1664153;85;21011;-69
2021/11/12 15:48:11;;;;;;;42.90;29.55;;;;;;;9.08;64.17;101085.70;1670246;84;21529;-70
2021/11/12 15:53:22;;;;;;;45.73;30.08;;;;;;;9.05;64.42;101091.00;1669755;84;20959;-69
2021/11/12 15:58:59;;;;;;;45.05;30.27;;;;;;;9.07;64.52;101101.41;1670264;84;21094;-69
2021/11/12 16:06:38;;;;;;;50.38;32.95;;;;;;;9.19;64.70;101110.73;1626060;86;21100;-68
2021/11/12 16:08:54;;;;;;;49.50;33.38;;;;;;;9.25;64.65;101115.14;1669803;84;21054;-68
2021/11/12 16:11:31;;;;;;;52.98;35.30;;;;;;;9.31;64.58;101111.50;1670497;84;21066;-68
2021/11/12 16:14:12;;;;;;;51.40;35.33;;;;;;;9.36;64.49;101127.09;1670142;84;21078;-68